Time;durP1;ratioP1;P1;durP2;ratioP2;P2;SDS_P1;SDS_P2;PMS_P1;PMS_P2;Temp;Humidity;BMP_temperature;BMP_pressure;BME280_temperature;BME280_humidity;BME280_pressure;Samples;Min_cycle;Max_cycle;Signal;HPM_P1;HPM_P2
2022/07/26 00:00:11;;;;;;;2.03;0.70;;;18.30;91.50;;;;;;4930647;29;20151;-53
2022/07/26 00:02:38;;;;;;;1.05;0.57;;;18.30;91.50;;;;;;4930585;29;20051;-51
2022/07/26 00:05:13;;;;;;;1.45;0.73;;;18.20;91.80;;;;;;4922803;29;20055;-53
2022/07/26 00:07:40;;;;;;;4.60;1.00;;;18.10;91.90;;;;;;4930365;29;20083;-53
2022/07/26 00:10:07;;;;;;;3.42;0.88;;;18.10;91.90;;;;;;4930634;29;20056;-54
2022/07/26 00:12:34;;;;;;;7.10;1.50;;;18.00;92.20;;;;;;4930534;29;20106;-52
2022/07/26 00:15:01;;;;;;;3.15;0.88;;;18.10;92.00;;;;;;4925471;29;20044;-53
2022/07/26 00:17:27;;;;;;;3.08;0.82;;;17.90;92.20;;;;;;4930392;29;20153;-54
2022/07/26 00:19:54;;;;;;;6.47;1.35;;;17.90;92.80;;;;;;4930092;29;20130;-54
2022/07/26 00:22:33;;;;;;;4.15;1.13;;;17.80;92.70;;;;;;4930700;29;20054;-54
2022/07/26 00:25:01;;;;;;;6.00;2.25;;;17.70;93.50;;;;;;4929842;29;20048;-51
2022/07/26 00:27:28;;;;;;;4.28;0.88;;;17.60;93.90;;;;;;4930457;29;20079;-52
2022/07/26 00:29:55;;;;;;;3.13;0.90;;;17.60;93.50;;;;;;4929887;29;20043;-53
2022/07/26 00:32:22;;;;;;;7.18;1.65;;;17.60;93.70;;;;;;4930351;29;20075;-55
2022/07/26 00:34:50;;;;;;;3.20;1.15;;;17.50;94.10;;;;;;4930131;29;20579;-52
2022/07/26 00:37:17;;;;;;;4.38;1.27;;;17.60;93.80;;;;;;4930117;29;20140;-53
2022/07/26 00:39:46;;;;;;;5.47;1.00;;;17.70;93.80;;;;;;4930407;29;20043;-52
2022/07/26 00:42:13;;;;;;;8.45;1.35;;;17.70;94.10;;;;;;4930069;29;20095;-55
2022/07/26 00:44:41;;;;;;;1.85;1.25;;;17.60;93.70;;;;;;4933378;29;20138;-54
2022/07/26 00:47:08;;;;;;;5.15;1.25;;;17.70;93.90;;;;;;4933406;29;20131;-50
2022/07/26 00:49:35;;;;;;;4.65;1.27;;;17.60;94.30;;;;;;4933363;29;20044;-53
2022/07/26 00:52:04;;;;;;;4.78;1.17;;;17.60;94.30;;;;;;4933414;29;20098;-51
2022/07/26 00:54:31;;;;;;;7.30;3.03;;;17.70;94.50;;;;;;4933483;29;20122;-52
2022/07/26 00:56:58;;;;;;;6.82;0.98;;;17.50;94.90;;;;;;4933339;29;20048;-51
2022/07/26 00:59:24;;;;;;;4.65;1.08;;;17.60;94.30;;;;;;4933554;29;20123;-54
2022/07/26 01:01:51;;;;;;;4.95;1.42;;;17.70;94.20;;;;;;4933288;29;20127;-54
2022/07/26 01:04:18;;;;;;;5.97;1.52;;;17.60;94.20;;;;;;4933276;29;20412;-53
2022/07/26 01:06:45;;;;;;;2.65;1.10;;;17.70;94.60;;;;;;4932996;29;20058;-54
2022/07/26 01:09:12;;;;;;;6.72;1.63;;;17.60;94.60;;;;;;4932192;29;20135;-53
2022/07/26 01:11:39;;;;;;;5.97;1.27;;;17.60;94.60;;;;;;4931646;29;20083;-53
2022/07/26 01:14:06;;;;;;;4.00;1.25;;;17.50;94.60;;;;;;4922405;29;20597;-50
2022/07/26 01:16:33;;;;;;;5.32;1.10;;;17.40;94.80;;;;;;4932750;29;20055;-49
2022/07/26 01:19:00;;;;;;;7.70;1.45;;;17.40;95.00;;;;;;4933175;29;20056;-53
2022/07/26 01:21:28;;;;;;;4.28;1.08;;;17.40;95.00;;;;;;4932703;29;20047;-54
2022/07/26 01:23:55;;;;;;;6.18;1.30;;;17.50;95.30;;;;;;4932950;29;20127;-52
2022/07/26 01:26:22;;;;;;;7.07;2.03;;;17.40;95.00;;;;;;4932890;29;20360;-54
2022/07/26 01:28:51;;;;;;;4.47;1.75;;;17.50;94.90;;;;;;4932601;29;20546;-54
2022/07/26 01:31:18;;;;;;;4.03;1.20;;;17.50;95.30;;;;;;4932398;29;20131;-53
2022/07/26 01:33:45;;;;;;;5.93;1.35;;;17.50;95.00;;;;;;4932658;29;20047;-53
2022/07/26 01:36:12;;;;;;;6.70;1.90;;;17.50;95.40;;;;;;4932593;29;20114;-54
2022/07/26 01:38:39;;;;;;;7.03;1.30;;;17.50;95.50;;;;;;4932467;29;20312;-53
2022/07/26 01:41:06;;;;;;;4.55;1.45;;;17.40;96.00;;;;;;4932477;29;20134;-52
2022/07/26 01:43:33;;;;;;;6.07;1.63;;;17.30;96.30;;;;;;4932342;29;20460;-52
2022/07/26 01:46:00;;;;;;;5.00;1.80;;;17.30;96.00;;;;;;4932387;29;20139;-54
2022/07/26 01:48:27;;;;;;;4.07;1.20;;;17.40;95.80;;;;;;4932468;29;20099;-51
2022/07/26 01:50:55;;;;;;;13.43;2.83;;;17.60;95.90;;;;;;4932264;29;20056;-52
2022/07/26 01:53:22;;;;;;;4.57;1.25;;;17.50;95.80;;;;;;4931658;29;20123;-53
2022/07/26 01:55:49;;;;;;;2.83;0.90;;;17.60;95.80;;;;;;4932151;29;20421;-53
2022/07/26 01:58:16;;;;;;;9.43;1.83;;;17.60;95.80;;;;;;4932126;29;20046;-52
2022/07/26 02:00:42;;;;;;;6.15;1.35;;;17.50;95.90;;;;;;4931080;29;20052;-54
2022/07/26 02:03:09;;;;;;;7.85;1.73;;;17.40;96.10;;;;;;4931840;29;20040;-51
2022/07/26 02:05:36;;;;;;;7.03;2.17;;;17.50;96.30;;;;;;4932327;29;20040;-54
2022/07/26 02:08:03;;;;;;;4.18;1.63;;;17.60;96.10;;;;;;4931784;29;20094;-56
2022/07/26 02:13:15;;;;;;;5.95;2.03;;;17.80;95.90;;;;;;4931694;29;20099;-52
2022/07/26 02:15:42;;;;;;;5.13;1.60;;;17.80;95.80;;;;;;4931855;29;20134;-51
2022/07/26 02:18:09;;;;;;;3.90;1.05;;;17.70;95.80;;;;;;4932043;29;20471;-50
2022/07/26 02:20:36;;;;;;;3.75;1.17;;;17.70;95.90;;;;;;4931636;29;20071;-50
2022/07/26 02:23:03;;;;;;;7.82;1.60;;;17.80;96.10;;;;;;4931765;29;20047;-52
2022/07/26 02:25:29;;;;;;;5.95;1.50;;;17.70;96.10;;;;;;4931629;29;20079;-50
2022/07/26 02:27:56;;;;;;;7.63;1.23;;;17.50;96.40;;;;;;4931839;29;20074;-51
2022/07/26 02:30:23;;;;;;;9.32;2.00;;;17.40;97.10;;;;;;4931425;29;20048;-55
2022/07/26 02:32:50;;;;;;;4.72;1.40;;;17.50;96.90;;;;;;4931764;29;20143;-51
2022/07/26 02:35:17;;;;;;;4.97;1.83;;;17.60;96.90;;;;;;4931433;29;20099;-50
2022/07/26 02:37:43;;;;;;;4.57;1.42;;;17.70;96.60;;;;;;4931698;29;20086;-50
2022/07/26 02:40:11;;;;;;;4.25;1.60;;;17.60;96.60;;;;;;4931512;29;20046;-50
2022/07/26 02:42:44;;;;;;;6.55;1.60;;;17.60;96.80;;;;;;4931324;29;20500;-51
2022/07/26 02:45:11;;;;;;;4.38;1.38;;;17.60;97.10;;;;;;4931627;29;20131;-51
2022/07/26 02:47:48;;;;;;;3.75;1.55;;;17.60;97.00;;;;;;4931101;29;20470;-49
2022/07/26 02:50:22;;;;;;;5.43;1.83;;;17.60;98.00;;;;;;4931258;29;20138;-49
2022/07/26 02:52:49;;;;;;;3.58;1.50;;;17.50;98.60;;;;;;4931480;29;20138;-49
2022/07/26 02:55:17;;;;;;;3.35;1.70;;;17.50;97.70;;;;;;4931114;29;20071;-50
2022/07/26 02:57:44;;;;;;;4.75;1.52;;;17.60;97.80;;;;;;4931768;29;20094;-52
2022/07/26 03:00:14;;;;;;;7.60;1.83;;;17.70;97.80;;;;;;4931079;29;20051;-54
2022/07/26 03:02:41;;;;;;;5.72;2.05;;;17.70;97.70;;;;;;4931416;29;20090;-54
2022/07/26 03:05:08;;;;;;;2.88;1.35;;;17.60;98.50;;;;;;4930382;29;20168;-51
2022/07/26 03:07:35;;;;;;;6.90;2.67;;;17.60;98.30;;;;;;4930998;29;20147;-52
2022/07/26 03:10:02;;;;;;;6.13;1.75;;;17.60;98.50;;;;;;4930954;29;20083;-51
2022/07/26 03:12:29;;;;;;;3.47;1.52;;;17.50;98.50;;;;;;4930240;29;20078;-51
2022/07/26 03:14:56;;;;;;;5.15;1.77;;;17.60;98.80;;;;;;4930813;29;20140;-51
2022/07/26 03:17:23;;;;;;;4.80;1.55;;;17.60;98.60;;;;;;4929541;29;20060;-54
2022/07/26 03:19:50;;;;;;;6.72;1.63;;;17.60;98.70;;;;;;4931118;29;20223;-55
2022/07/26 03:22:17;;;;;;;5.15;1.85;;;17.60;98.80;;;;;;4930056;29;20079;-50
2022/07/26 03:24:43;;;;;;;2.90;1.50;;;17.50;99.60;;;;;;4930496;29;20399;-53
2022/07/26 03:27:10;;;;;;;7.15;2.03;;;17.40;99.80;;;;;;4930011;29;20083;-53
2022/07/26 03:29:37;;;;;;;3.63;1.55;;;17.50;99.90;;;;;;4931102;29;20134;-53
2022/07/26 03:32:04;;;;;;;4.38;1.42;;;17.40;99.60;;;;;;4930910;29;20087;-50
2022/07/26 03:34:31;;;;;;;6.90;1.90;;;17.40;99.60;;;;;;4931185;29;20067;-52
2022/07/26 03:36:57;;;;;;;5.90;1.35;;;17.50;99.50;;;;;;4930728;29;20086;-50
2022/07/26 03:39:24;;;;;;;5.28;1.40;;;17.60;99.90;;;;;;4931168;29;20099;-52
2022/07/26 03:41:51;;;;;;;4.80;1.75;;;17.40;99.90;;;;;;4930573;29;20079;-52
2022/07/26 03:44:18;;;;;;;6.43;1.92;;;17.40;99.90;;;;;;4930945;29;20050;-53
2022/07/26 03:46:44;;;;;;;2.65;1.20;;;17.40;99.90;;;;;;4930704;29;20048;-54
2022/07/26 03:49:11;;;;;;;4.07;1.45;;;17.30;99.90;;;;;;4930649;29;20047;-47
2022/07/26 03:51:43;;;;;;;5.43;1.38;;;17.40;99.90;;;;;;4930296;29;20068;-54
2022/07/26 03:54:09;;;;;;;5.93;1.65;;;17.40;99.90;;;;;;4931101;29;20069;-52
2022/07/26 03:56:38;;;;;;;7.13;1.70;;;17.40;99.90;;;;;;4930219;29;20051;-52
2022/07/26 03:59:07;;;;;;;7.93;1.92;;;17.40;99.90;;;;;;4930796;29;20134;-51
2022/07/26 04:01:34;;;;;;;3.58;1.52;;;17.40;99.90;;;;;;4930205;29;20146;-53
2022/07/26 04:04:02;;;;;;;3.33;1.63;;;17.40;99.90;;;;;;4929194;29;20048;-51
2022/07/26 04:06:28;;;;;;;4.25;1.45;;;17.50;99.90;;;;;;4930434;29;20098;-54
2022/07/26 04:08:55;;;;;;;6.22;1.70;;;17.40;99.90;;;;;;4930440;29;20099;-52
2022/07/26 04:11:22;;;;;;;13.07;1.90;;;17.40;99.90;;;;;;4929093;29;20135;-53
2022/07/26 04:13:54;;;;;;;7.88;1.83;;;17.50;99.90;;;;;;4930512;29;20126;-51
2022/07/26 04:16:21;;;;;;;4.15;1.48;;;17.50;99.90;;;;;;4930354;29;20143;-51
2022/07/26 04:18:48;;;;;;;7.00;1.70;;;17.50;99.90;;;;;;4933988;29;20656;-48
2022/07/26 04:21:15;;;;;;;8.93;2.65;;;17.40;99.90;;;;;;4933915;29;20050;-51
2022/07/26 04:23:42;;;;;;;5.90;1.55;;;17.30;99.90;;;;;;4933965;29;20142;-51
2022/07/26 04:26:14;;;;;;;7.22;2.13;;;17.40;99.90;;;;;;4934135;29;20052;-53
2022/07/26 04:28:41;;;;;;;9.10;2.63;;;17.30;99.90;;;;;;4933881;29;20504;-55
2022/07/26 04:31:08;;;;;;;8.77;2.10;;;17.30;99.90;;;;;;4933795;29;20138;-51
2022/07/26 04:33:35;;;;;;;5.65;1.60;;;17.30;99.90;;;;;;4933649;29;20090;-50
2022/07/26 04:36:02;;;;;;;5.00;1.77;;;17.30;99.90;;;;;;4933801;29;20142;-54
2022/07/26 04:38:29;;;;;;;6.10;2.40;;;17.10;99.90;;;;;;4933252;29;20138;-54
2022/07/26 04:40:56;;;;;;;9.95;1.55;;;17.00;99.90;;;;;;4934012;29;20059;-52
2022/07/26 04:43:23;;;;;;;3.22;1.42;;;17.00;99.90;;;;;;4933623;29;20118;-52
2022/07/26 04:45:50;;;;;;;7.05;1.95;;;17.10;99.90;;;;;;4933727;29;20115;-50
2022/07/26 04:48:17;;;;;;;5.97;1.80;;;17.20;99.90;;;;;;4933144;29;20047;-54
2022/07/26 04:50:44;;;;;;;5.95;1.88;;;17.30;99.90;;;;;;4933936;29;20085;-55
2022/07/26 04:53:11;;;;;;;4.72;1.88;;;17.30;99.90;;;;;;4933426;29;20079;-49
2022/07/26 04:55:38;;;;;;;5.70;1.40;;;17.30;99.90;;;;;;4933376;29;20172;-54
2022/07/26 04:58:04;;;;;;;5.55;2.03;;;17.20;99.90;;;;;;4933308;29;20456;-52
2022/07/26 05:00:31;;;;;;;4.47;1.83;;;17.10;99.90;;;;;;4933105;29;20043;-54
2022/07/26 05:03:04;;;;;;;2.95;1.50;;;17.10;99.90;;;;;;4921429;29;20052;-53
2022/07/26 05:05:31;;;;;;;5.90;1.60;;;17.10;99.90;;;;;;4933236;29;20439;-53
2022/07/26 05:08:00;;;;;;;3.22;1.45;;;17.00;99.90;;;;;;4933139;29;20083;-54
2022/07/26 05:10:31;;;;;;;4.00;2.00;;;17.00;99.90;;;;;;4933228;29;20483;-53
2022/07/26 05:12:58;;;;;;;8.20;1.80;;;17.10;99.90;;;;;;4933101;29;20047;-54
2022/07/26 05:15:24;;;;;;;3.97;1.40;;;17.20;99.90;;;;;;4932894;29;20126;-52
2022/07/26 05:18:06;;;;;;;6.72;1.80;;;17.30;99.90;;;;;;4932807;29;20111;-53
2022/07/26 05:20:36;;;;;;;6.25;1.70;;;17.40;99.90;;;;;;4932885;29;20463;-53
2022/07/26 05:23:03;;;;;;;7.43;1.80;;;17.40;99.90;;;;;;4933059;29;20056;-52
2022/07/26 05:28:53;;;;;;;5.05;2.50;;;17.30;99.90;;;;;;4950575;28;20141;-55
2022/07/26 05:31:20;;;;;;;4.53;1.33;;;17.30;99.90;;;;;;4953766;28;20078;-53
2022/07/26 05:33:47;;;;;;;9.65;1.75;;;17.40;99.90;;;;;;4960444;28;20043;-54
2022/07/26 05:36:13;;;;;;;4.07;1.85;;;17.40;99.90;;;;;;4974985;28;20171;-55
2022/07/26 05:38:40;;;;;;;9.35;2.15;;;17.40;99.90;;;;;;4976335;28;20043;-52
2022/07/26 05:41:07;;;;;;;4.18;1.88;;;17.30;99.90;;;;;;4973778;28;20035;-55
2022/07/26 05:43:34;;;;;;;7.57;1.48;;;17.20;99.90;;;;;;4968365;29;20066;-54
2022/07/26 05:46:07;;;;;;;4.85;1.30;;;17.10;99.90;;;;;;4962394;28;20074;-55
2022/07/26 05:48:35;;;;;;;7.07;1.55;;;17.00;99.90;;;;;;4956609;29;20059;-49
2022/07/26 05:51:02;;;;;;;5.00;1.63;;;17.10;99.90;;;;;;4958968;28;20106;-54
2022/07/26 05:53:29;;;;;;;6.05;1.85;;;17.10;99.90;;;;;;4961107;28;20387;-55
2022/07/26 05:55:56;;;;;;;11.98;1.88;;;17.10;99.90;;;;;;4963162;28;20082;-55
2022/07/26 05:58:23;;;;;;;8.50;1.63;;;17.10;99.90;;;;;;4964028;28;20047;-53
2022/07/26 06:00:49;;;;;;;3.90;1.40;;;17.10;99.90;;;;;;4958738;28;20082;-53
2022/07/26 06:03:22;;;;;;;9.07;1.38;;;17.10;99.90;;;;;;4954341;28;20089;-52
2022/07/26 06:05:54;;;;;;;7.47;1.42;;;17.00;99.90;;;;;;4953599;28;20043;-52
2022/07/26 06:08:21;;;;;;;5.40;1.92;;;17.10;99.90;;;;;;4951805;29;20529;-51
2022/07/26 06:10:48;;;;;;;5.20;1.25;;;17.10;99.90;;;;;;4953251;28;20565;-51
2022/07/26 06:13:15;;;;;;;4.60;1.63;;;17.20;99.90;;;;;;4953901;28;20070;-50
2022/07/26 06:15:42;;;;;;;5.57;1.33;;;17.20;99.90;;;;;;4951938;29;20441;-53
2022/07/26 06:18:09;;;;;;;10.88;2.15;;;17.20;99.90;;;;;;4952685;28;20098;-53
2022/07/26 06:20:40;;;;;;;4.05;1.15;;;17.10;99.90;;;;;;4952691;28;20086;-51
2022/07/26 06:23:07;;;;;;;6.97;1.73;;;17.00;99.90;;;;;;4952692;28;20561;-54
2022/07/26 06:25:34;;;;;;;8.77;2.10;;;17.00;99.90;;;;;;4953879;28;20075;-49
2022/07/26 06:28:02;;;;;;;7.18;1.95;;;16.70;99.90;;;;;;4959667;28;20058;-55
2022/07/26 06:30:29;;;;;;;2.58;2.05;;;16.70;99.90;;;;;;4973884;29;20043;-50
2022/07/26 06:32:56;;;;;;;5.53;2.28;;;16.60;99.90;;;;;;4972911;28;20057;-54
2022/07/26 06:35:23;;;;;;;5.05;1.98;;;16.60;99.90;;;;;;4968217;28;20085;-52
2022/07/26 06:37:49;;;;;;;4.05;1.90;;;16.60;99.90;;;;;;4963836;28;20058;-53
2022/07/26 06:40:16;;;;;;;5.72;1.92;;;16.60;99.90;;;;;;4963695;28;20059;-54
2022/07/26 06:42:43;;;;;;;10.90;2.88;;;16.50;99.90;;;;;;4962642;29;20078;-53
2022/07/26 06:45:13;;;;;;;7.13;2.42;;;16.50;99.90;;;;;;4963459;28;20150;-51
2022/07/26 06:47:39;;;;;;;11.20;2.78;;;16.60;99.90;;;;;;4962580;28;20063;-51
2022/07/26 06:50:07;;;;;;;6.07;2.65;;;16.80;99.90;;;;;;4961934;28;20082;-54
2022/07/26 06:52:33;;;;;;;7.40;2.80;;;16.80;99.90;;;;;;4952197;28;20086;-55
2022/07/26 06:55:01;;;;;;;4.10;1.95;;;16.80;99.90;;;;;;4951513;28;20334;-53
2022/07/26 06:57:28;;;;;;;7.53;2.55;;;16.90;99.90;;;;;;4951352;28;20051;-52
2022/07/26 06:59:54;;;;;;;7.85;2.35;;;16.90;99.90;;;;;;4951361;28;20125;-54
2022/07/26 07:02:21;;;;;;;8.43;2.58;;;16.90;99.90;;;;;;4951147;28;20130;-50
2022/07/26 07:04:48;;;;;;;10.02;2.20;;;16.90;99.90;;;;;;4950776;28;20118;-54
2022/07/26 07:07:15;;;;;;;8.32;2.88;;;17.00;99.90;;;;;;4951020;28;20130;-53
2022/07/26 07:09:41;;;;;;;11.43;2.78;;;17.00;99.90;;;;;;4950794;28;20579;-53
2022/07/26 07:12:08;;;;;;;8.13;2.92;;;17.00;99.90;;;;;;4949849;28;20054;-53
2022/07/26 07:14:37;;;;;;;8.73;3.00;;;17.10;99.90;;;;;;4949260;29;20098;-54
2022/07/26 07:17:05;;;;;;;11.02;3.53;;;17.20;99.90;;;;;;4950410;29;20048;-52
2022/07/26 07:19:39;;;;;;;4.53;2.30;;;17.30;99.90;;;;;;4942202;28;20051;-55
2022/07/26 07:22:10;;;;;;;5.90;2.30;;;17.40;99.90;;;;;;4950280;28;20501;-53
2022/07/26 07:24:38;;;;;;;8.38;1.73;;;17.40;99.90;;;;;;4950623;28;20051;-53
2022/07/26 07:27:04;;;;;;;13.27;2.47;;;17.40;99.90;;;;;;4950004;28;20131;-54
2022/07/26 07:29:32;;;;;;;7.40;2.20;;;17.40;99.90;;;;;;4950457;28;20066;-54
2022/07/26 07:31:59;;;;;;;9.68;2.08;;;17.40;99.90;;;;;;4950247;28;20365;-54
2022/07/26 07:34:29;;;;;;;11.23;2.13;;;17.40;99.90;;;;;;4949837;28;20078;-52
2022/07/26 07:36:56;;;;;;;10.25;3.15;;;17.40;99.90;;;;;;4950144;28;20051;-54
2022/07/26 07:39:23;;;;;;;8.48;2.40;;;17.40;99.90;;;;;;4948364;29;20047;-55
2022/07/26 07:42:00;;;;;;;11.95;2.05;;;17.20;99.90;;;;;;4949036;29;20549;-52
2022/07/26 07:44:26;;;;;;;8.07;3.75;;;17.20;99.90;;;;;;4949851;28;20079;-53
2022/07/26 07:46:53;;;;;;;11.77;2.58;;;17.30;99.90;;;;;;4949943;28;20103;-53
2022/07/26 07:49:21;;;;;;;7.22;2.35;;;17.40;99.90;;;;;;4949896;28;20044;-53
2022/07/26 07:51:48;;;;;;;8.60;1.77;;;17.50;99.90;;;;;;4949675;28;20138;-52
2022/07/26 07:54:14;;;;;;;7.03;2.15;;;17.50;99.90;;;;;;4953936;28;20123;-54
2022/07/26 07:56:42;;;;;;;11.38;2.15;;;17.50;99.90;;;;;;4953623;28;20565;-50
2022/07/26 07:59:09;;;;;;;11.20;2.22;;;17.50;99.90;;;;;;4953302;28;20549;-52
2022/07/26 08:01:36;;;;;;;8.65;2.08;;;17.40;99.90;;;;;;4953539;28;20055;-52
2022/07/26 08:04:07;;;;;;;14.63;3.65;;;17.30;99.90;;;;;;4942849;29;20061;-53
2022/07/26 08:06:34;;;;;;;11.63;2.30;;;17.40;99.90;;;;;;4953586;28;20051;-53
2022/07/26 08:09:02;;;;;;;7.40;2.63;;;17.50;99.90;;;;;;4953536;29;20043;-54
2022/07/26 08:11:31;;;;;;;10.55;3.25;;;17.60;99.90;;;;;;4952421;29;20070;-54
2022/07/26 08:13:59;;;;;;;5.00;2.80;;;17.70;99.90;;;;;;4953079;28;20047;-53
2022/07/26 08:16:26;;;;;;;9.75;2.58;;;17.70;99.90;;;;;;4953343;28;20043;-51
2022/07/26 08:18:53;;;;;;;18.23;3.92;;;17.80;99.90;;;;;;4953361;28;20146;-53
2022/07/26 08:21:24;;;;;;;10.25;2.90;;;17.90;99.90;;;;;;4953314;28;20069;-55
2022/07/26 08:23:54;;;;;;;8.18;2.28;;;18.00;99.90;;;;;;4953081;28;20586;-53
2022/07/26 08:26:20;;;;;;;9.18;2.83;;;18.10;99.90;;;;;;4952925;28;20079;-51
2022/07/26 08:28:47;;;;;;;10.52;2.35;;;18.20;99.90;;;;;;4952626;28;20051;-53
2022/07/26 08:31:25;;;;;;;15.82;6.07;;;18.30;99.90;;;;;;4951931;29;20483;-57
2022/07/26 08:33:52;;;;;;;7.68;3.67;;;18.30;99.90;;;;;;4953232;28;20062;-51
2022/07/26 08:36:18;;;;;;;7.25;3.30;;;18.30;99.90;;;;;;4952606;28;20099;-54
2022/07/26 08:38:46;;;;;;;9.57;4.35;;;18.40;99.90;;;;;;4952852;28;20094;-49
2022/07/26 08:41:15;;;;;;;11.05;4.10;;;18.30;99.90;;;;;;4952481;28;20054;-50
2022/07/26 08:43:43;;;;;;;11.23;3.53;;;18.40;99.90;;;;;;4953238;28;20051;-50
2022/07/26 08:46:20;;;;;;;9.50;3.78;;;18.30;99.90;;;;;;4952809;28;20065;-54
2022/07/26 08:48:53;;;;;;;6.07;4.07;;;18.30;99.90;;;;;;4948788;29;20413;-55
2022/07/26 08:51:20;;;;;;;9.70;3.33;;;18.30;99.90;;;;;;4952665;28;20066;-54
2022/07/26 08:53:47;;;;;;;9.70;4.00;;;18.30;99.90;;;;;;4950930;29;20055;-54
2022/07/26 08:56:13;;;;;;;5.72;3.30;;;18.30;99.90;;;;;;4951590;29;20090;-56
2022/07/26 08:58:42;;;;;;;9.40;3.38;;;18.20;99.90;;;;;;4952593;28;20051;-54
2022/07/26 09:01:12;;;;;;;6.95;3.53;;;18.20;99.90;;;;;;4952443;28;20082;-54
2022/07/26 09:03:40;;;;;;;10.88;4.13;;;18.30;99.90;;;;;;4951269;28;20074;-54
2022/07/26 09:06:14;;;;;;;11.07;4.45;;;18.40;99.90;;;;;;4940989;28;20051;-54
2022/07/26 09:08:41;;;;;;;13.23;4.03;;;18.50;99.90;;;;;;4952419;28;20098;-53
2022/07/26 09:11:23;;;;;;;10.68;5.07;;;18.50;99.90;;;;;;4952779;28;20039;-54
2022/07/26 09:13:55;;;;;;;11.48;3.97;;;18.50;99.90;;;;;;4952142;28;20055;-51
2022/07/26 09:16:22;;;;;;;8.13;3.33;;;18.50;99.90;;;;;;4951821;28;20047;-53
2022/07/26 09:18:48;;;;;;;15.60;4.22;;;18.60;99.90;;;;;;4951919;28;20058;-54
2022/07/26 09:21:28;;;;;;;9.38;3.55;;;18.60;99.90;;;;;;4952337;28;20043;-53
2022/07/26 09:23:55;;;;;;;13.27;4.65;;;18.70;99.90;;;;;;4945360;29;20067;-52
2022/07/26 09:26:24;;;;;;;11.98;3.75;;;18.90;99.90;;;;;;4950943;29;20069;-54
2022/07/26 09:29:08;;;;;;;11.77;4.20;;;19.00;99.90;;;;;;4952170;28;20170;-55
2022/07/26 09:31:36;;;;;;;10.02;3.88;;;19.10;99.90;;;;;;4952251;29;20043;-53
2022/07/26 09:34:03;;;;;;;11.00;4.15;;;19.10;99.90;;;;;;4951787;28;20134;-52
2022/07/26 09:36:30;;;;;;;14.60;4.93;;;19.20;99.90;;;;;;4952091;28;20189;-52
2022/07/26 09:39:00;;;;;;;10.55;3.65;;;19.10;99.90;;;;;;4950501;29;20051;-53
2022/07/26 09:41:32;;;;;;;7.38;3.70;;;19.10;99.90;;;;;;4951846;28;20075;-58
2022/07/26 09:44:04;;;;;;;10.27;3.33;;;19.40;99.90;;;;;;4947245;29;20047;-52
2022/07/26 09:46:31;;;;;;;10.95;3.95;;;19.60;99.90;;;;;;4950870;29;20110;-51
2022/07/26 09:49:14;;;;;;;8.65;2.92;;;19.70;99.90;;;;;;4950472;28;20114;-50
2022/07/26 09:51:45;;;;;;;8.82;3.65;;;19.70;99.90;;;;;;4931529;29;20099;-54
2022/07/26 09:54:17;;;;;;;9.68;3.75;;;19.70;99.90;;;;;;4950597;29;20098;-53
2022/07/26 09:56:53;;;;;;;8.77;4.63;;;19.70;99.90;;;;;;4951899;28;20047;-54
2022/07/26 09:59:21;;;;;;;9.73;4.55;;;19.70;99.90;;;;;;4950561;29;20071;-54
2022/07/26 10:01:49;;;;;;;14.88;4.10;;;19.70;99.90;;;;;;4951759;28;20047;-54
2022/07/26 10:04:16;;;;;;;7.82;3.80;;;19.80;99.90;;;;;;4951285;28;20137;-51
2022/07/26 10:06:44;;;;;;;6.13;2.60;;;19.90;99.90;;;;;;4951925;28;20473;-54
2022/07/26 10:09:10;;;;;;;10.13;3.38;;;20.00;99.90;;;;;;4951353;28;20161;-53
2022/07/26 10:11:40;;;;;;;5.05;2.80;;;20.10;99.60;;;;;;4950424;29;20079;-55
2022/07/26 10:14:31;;;;;;;9.18;3.63;;;20.20;99.60;;;;;;4950783;28;20051;-55
2022/07/26 10:17:20;;;;;;;9.90;3.78;;;20.30;98.90;;;;;;4949446;29;20055;-48
2022/07/26 10:19:54;;;;;;;;;;;20.40;99.00;;;;;;4950563;29;20129;-52
2022/07/26 10:22:21;;;;;;;10.45;3.15;;;20.40;97.80;;;;;;4951289;28;19978;-50
2022/07/26 10:24:48;;;;;;;10.80;3.67;;;20.40;98.70;;;;;;4950910;28;20090;-54
2022/07/26 10:27:41;;;;;;;13.52;4.03;;;20.40;98.60;;;;;;4950539;28;20059;-50
2022/07/26 10:30:17;;;;;;;9.25;3.22;;;20.50;97.00;;;;;;4951179;28;20086;-52
2022/07/26 10:32:43;;;;;;;6.82;2.65;;;20.60;97.50;;;;;;4940485;29;20043;-51
2022/07/26 10:35:30;;;;;;;6.43;2.70;;;20.80;98.00;;;;;;4950554;28;20130;-50
2022/07/26 10:38:01;;;;;;;6.07;2.60;;;20.90;96.40;;;;;;4940737;29;20141;-53
2022/07/26 10:40:29;;;;;;;3.75;2.17;;;21.00;97.00;;;;;;4950658;28;20130;-54
2022/07/26 10:43:11;;;;;;;6.03;2.05;;;21.00;96.90;;;;;;4951155;28;20251;-53
2022/07/26 10:46:29;;;;;;;7.45;2.78;;;21.10;95.60;;;;;;4950097;28;20043;-52
2022/07/26 10:49:03;;;;;;;6.30;2.47;;;21.00;95.40;;;;;;4949794;28;20413;-54
2022/07/26 10:51:35;;;;;;;5.97;2.53;;;21.00;95.70;;;;;;4950679;28;20054;-53
2022/07/26 10:54:03;;;;;;;4.68;2.75;;;21.10;96.00;;;;;;4950818;28;20089;-53
2022/07/26 10:56:30;;;;;;;7.53;2.85;;;21.30;96.00;;;;;;4950309;28;20062;-55
2022/07/26 10:59:00;;;;;;;20.38;4.78;;;21.40;95.70;;;;;;4950149;28;20415;-53
2022/07/26 11:01:38;;;;;;;11.38;2.65;;;21.50;95.30;;;;;;4950386;28;20047;-51
2022/07/26 11:04:06;;;;;;;6.70;2.15;;;21.60;93.70;;;;;;4950460;29;20403;-55
2022/07/26 11:06:33;;;;;;;6.78;2.10;;;21.60;94.30;;;;;;4948867;28;20486;-52
2022/07/26 11:09:08;;;;;;;5.80;2.63;;;21.60;93.20;;;;;;4949265;29;20109;-55
2022/07/26 11:11:35;;;;;;;8.45;3.50;;;21.50;93.50;;;;;;4949111;29;20047;-54
2022/07/26 11:14:09;;;;;;;7.57;2.60;;;21.50;93.80;;;;;;4950514;29;20134;-54
2022/07/26 11:16:40;;;;;;;7.75;2.55;;;21.50;93.10;;;;;;4949900;28;20619;-53
2022/07/26 11:19:17;;;;;;;9.60;3.08;;;21.60;93.00;;;;;;4950450;28;20055;-54
2022/07/26 11:21:44;;;;;;;75.78;43.47;;;21.60;92.40;;;;;;4950093;28;20076;-54
2022/07/26 11:24:11;;;;;;;14.70;6.88;;;21.60;93.10;;;;;;4950217;28;20577;-54
2022/07/26 11:26:42;;;;;;;14.63;3.55;;;21.60;92.90;;;;;;4949567;28;20058;-55
2022/07/26 11:29:09;;;;;;;7.43;2.80;;;21.60;92.40;;;;;;4949916;28;20082;-54
2022/07/26 11:31:44;;;;;;;16.05;3.17;;;21.50;92.50;;;;;;4949980;28;20225;-50
2022/07/26 11:34:24;;;;;;;8.68;2.55;;;21.40;92.50;;;;;;4947170;29;20314;-53
2022/07/26 11:36:52;;;;;;;12.32;2.83;;;21.40;92.40;;;;;;4950377;28;20452;-53
2022/07/26 11:39:24;;;;;;;13.60;6.47;;;21.20;92.70;;;;;;4950141;29;20051;-51
2022/07/26 11:41:55;;;;;;;10.48;4.13;;;21.20;92.50;;;;;;4949892;28;20079;-53
2022/07/26 11:44:22;;;;;;;7.70;3.05;;;21.20;92.60;;;;;;4948816;29;20051;-52
2022/07/26 11:46:49;;;;;;;5.38;2.20;;;21.30;92.30;;;;;;4949723;28;20502;-58
2022/07/26 11:49:21;;;;;;;6.57;2.55;;;21.30;92.10;;;;;;4949919;28;20059;-51
2022/07/26 11:51:54;;;;;;;5.50;2.25;;;21.40;91.60;;;;;;4948534;29;20049;-52
2022/07/26 11:54:23;;;;;;;5.05;2.10;;;21.30;91.70;;;;;;4949782;28;20051;-54
2022/07/26 11:57:00;;;;;;;11.43;2.83;;;21.30;91.80;;;;;;4938924;29;20086;-55
2022/07/26 11:59:33;;;;;;;11.30;3.60;;;21.20;90.80;;;;;;4949954;28;20047;-54
2022/07/26 12:02:01;;;;;;;6.70;2.20;;;21.10;91.50;;;;;;4939106;29;20121;-51
2022/07/26 12:04:32;;;;;;;8.38;2.83;;;21.00;91.60;;;;;;4948413;29;20370;-54
2022/07/26 12:07:00;;;;;;;9.52;2.42;;;20.90;91.90;;;;;;4949529;29;20105;-57
2022/07/26 12:09:33;;;;;;;10.95;2.78;;;21.00;91.90;;;;;;4949495;28;20126;-51
2022/07/26 12:12:04;;;;;;;6.70;2.60;;;21.10;92.00;;;;;;4949158;28;20090;-53
2022/07/26 12:14:32;;;;;;;11.65;2.38;;;21.20;91.80;;;;;;4950148;28;20051;-52
2022/07/26 12:17:12;;;;;;;13.68;3.55;;;21.30;91.80;;;;;;4949824;29;20067;-54
2022/07/26 12:19:40;;;;;;;4.72;2.28;;;21.30;90.70;;;;;;4941643;29;20150;-54
2022/07/26 12:22:25;;;;;;;9.15;2.67;;;21.40;91.60;;;;;;4948140;29;20067;-52
2022/07/26 12:24:52;;;;;;;11.90;3.20;;;21.50;90.30;;;;;;4942072;29;20502;-51
2022/07/26 12:27:22;;;;;;;5.68;2.38;;;21.50;91.20;;;;;;4949278;28;20071;-53
2022/07/26 12:29:54;;;;;;;8.82;3.08;;;21.40;88.60;;;;;;4949360;28;20134;-52
2022/07/26 12:32:20;;;;;;;5.90;2.10;;;21.30;90.50;;;;;;4949447;28;20442;-55
2022/07/26 12:34:55;;;;;;;5.43;3.08;;;21.20;90.80;;;;;;4949266;28;20069;-53
2022/07/26 12:37:22;;;;;;;7.57;2.53;;;21.30;90.40;;;;;;4949585;28;20047;-54
2022/07/26 12:40:11;;;;;;;10.95;2.53;;;21.30;90.60;;;;;;4951164;29;20057;-54
2022/07/26 12:42:42;;;;;;;5.93;2.40;;;21.30;90.20;;;;;;4952735;28;20100;-51
2022/07/26 12:45:11;;;;;;;7.28;2.10;;;21.40;90.30;;;;;;4951758;29;20126;-55
2022/07/26 12:47:42;;;;;;;6.40;3.00;;;21.50;90.40;;;;;;4952447;28;20506;-53
2022/07/26 12:50:09;;;;;;;6.72;2.78;;;21.50;88.90;;;;;;4952587;28;20081;-52
2022/07/26 12:52:38;;;;;;;7.10;2.47;;;21.30;90.00;;;;;;4953015;28;20051;-54
2022/07/26 12:55:06;;;;;;;8.75;3.35;;;21.30;90.20;;;;;;4952434;28;20103;-54
2022/07/26 12:57:33;;;;;;;9.30;2.50;;;21.30;90.60;;;;;;4951577;29;20558;-54
2022/07/26 13:00:03;;;;;;;5.47;2.20;;;21.30;90.40;;;;;;4951288;29;20050;-55